Unser Flugplatzteam

Segelflugzeugschlepp am Flugplatz Konstanz

Unsere freundlichen Mitarbeiter stehen Ihnen gerne mit Rat und Tat zur Seite:

Robert Leitner

Flugleiter, Landesbeauftragter für Luftaufsicht am Verkehrlandeplatz Konstanz

Minky Schweizer

Flugleiterin

Dieter Bauer

Flugleiter

Live am Platz

Die Bilder unserer Webcams werden alle 5 Minuten aktualisiert.

Sonnenaufgang:

05:26 UTC / 06:26 Lokal

Sonnenuntergang:

17:36 UTC / 18:36 Lokal

METAR (19.03.2019 21:20 UTC):

EDNY 192020Z VRB02KT CAVOK 00/M03 Q1030
VFR

TAF (19.03.2019 18:00 UTC):

TAF EDNY 191700Z 1918/2018 04004KT CAVOK BECMG 2009/2011 04010KT

Alle Angaben unverbindlich und ohne Gewähr. Zeiten genähert.

Für den Verkehrslandeplatz Konstanz werden keine offiziellen Wetterinformationen ausgegeben. Daher werden zur Orientierung Daten des nahegelegenen Flughafens Friedrichshafen dargestellt.

Flugwetterdaten zur Verfügung gestellt von wippich.aero.